createdAt,value
2023-04-17T00:00:57.755Z,86.25488281
2023-04-17T00:01:58.587Z,86.15112305
2023-04-17T00:03:00.197Z,86.09008789
2023-04-17T00:04:01.166Z,86.29760742
2023-04-17T00:05:02.752Z,86.09008789
2023-04-17T00:06:03.510Z,86.09008789
2023-04-17T00:07:04.389Z,86.19384766
2023-04-17T00:08:05.290Z,86.09008789
2023-04-17T00:09:37.639Z,85.98632813
2023-04-17T00:10:38.552Z,86.09008789
2023-04-17T00:11:40.066Z,86.19384766
2023-04-17T00:12:40.911Z,86.19384766
2023-04-17T00:13:42.489Z,86.09008789
2023-04-17T00:14:44.097Z,85.88867188
2023-04-17T00:15:44.970Z,85.84594727
2023-04-17T00:16:46.673Z,85.88867188
2023-04-17T00:17:48.097Z,85.98632813
2023-04-17T00:18:48.962Z,86.19384766
2023-04-17T00:19:50.491Z,86.19384766
2023-04-17T00:20:51.533Z,86.40136719
2023-04-17T00:21:52.526Z,86.40136719
2023-04-17T00:22:54.023Z,86.49902344
2023-04-17T00:23:55.718Z,86.49902344
2023-04-17T00:24:56.565Z,86.40136719
2023-04-17T00:25:58.122Z,86.40136719
2023-04-17T00:26:58.997Z,86.29760742
2023-04-17T00:27:59.757Z,86.29760742
2023-04-17T00:29:01.607Z,86.29760742
2023-04-17T00:30:02.627Z,86.40136719
2023-04-17T00:31:03.462Z,86.29760742
2023-04-17T00:32:04.354Z,86.09008789
2023-04-17T00:33:36.356Z,85.98632813
2023-04-17T00:34:38.052Z,85.98632813
2023-04-17T00:35:38.931Z,86.09008789
2023-04-17T00:36:39.739Z,86.19384766
2023-04-17T00:37:41.101Z,86.29760742
2023-04-17T00:38:41.872Z,86.40136719
2023-04-17T00:39:43.583Z,86.29760742
2023-04-17T00:40:44.629Z,86.40136719
2023-04-17T00:41:45.459Z,86.29760742
2023-04-17T00:42:47.082Z,86.19384766
2023-04-17T00:43:48.613Z,86.29760742
2023-04-17T00:44:50.076Z,86.09008789
2023-04-17T00:45:51.050Z,86.19384766
2023-04-17T00:46:51.811Z,86.19384766
2023-04-17T00:47:53.621Z,86.19384766
2023-04-17T00:48:54.388Z,86.09008789
2023-04-17T00:49:55.257Z,86.19384766
2023-04-17T00:50:57.146Z,86.19384766
2023-04-17T00:51:57.940Z,86.09008789
2023-04-17T00:52:59.566Z,86.19384766
2023-04-17T00:54:00.388Z,86.29760742
2023-04-17T00:55:02.234Z,86.29760742
2023-04-17T00:56:04.198Z,86.29760742
2023-04-17T00:57:05.771Z,86.49902344
2023-04-17T00:58:38.106Z,86.40136719
2023-04-17T00:59:38.931Z,86.40136719
2023-04-17T01:00:40.569Z,86.40136719
2023-04-17T01:01:41.697Z,86.40136719
2023-04-17T01:02:43.266Z,86.40136719
2023-04-17T01:03:44.260Z,86.49902344
2023-04-17T01:04:45.607Z,86.49902344
2023-04-17T01:05:46.408Z,86.6027832
2023-04-17T01:06:47.299Z,86.49902344
2023-04-17T01:07:49.089Z,86.6027832
2023-04-17T01:08:49.980Z,86.49902344
2023-04-17T01:09:51.477Z,86.40136719
2023-04-17T01:10:53.006Z,86.29760742
2023-04-17T01:11:53.844Z,86.19384766
2023-04-17T01:12:55.607Z,86.19384766
2023-04-17T01:13:56.544Z,86.19384766
2023-04-17T01:14:58.126Z,86.29760742
2023-04-17T01:15:59.022Z,86.29760742
2023-04-17T01:16:59.903Z,86.49902344
2023-04-17T01:18:01.574Z,86.40136719
2023-04-17T01:19:02.428Z,86.29760742
2023-04-17T01:20:03.395Z,86.29760742
2023-04-17T01:21:04.333Z,86.19384766
2023-04-17T01:22:36.596Z,86.09008789
2023-04-17T01:23:37.500Z,85.98632813
2023-04-17T01:24:38.346Z,85.88867188
2023-04-17T01:25:40.261Z,85.98632813
2023-04-17T01:26:41.220Z,86.09008789
2023-04-17T01:27:43.120Z,85.98632813
2023-04-17T01:28:44.112Z,85.88867188
2023-04-17T01:29:45.101Z,85.78491211
2023-04-17T01:30:46.044Z,85.78491211
2023-04-17T01:31:46.957Z,85.88867188
2023-04-17T01:32:48.665Z,85.98632813
2023-04-17T01:33:49.469Z,85.98632813
2023-04-17T01:34:51.094Z,85.88867188
2023-04-17T01:35:52.640Z,85.88867188
2023-04-17T01:36:53.653Z,85.78491211
2023-04-17T01:37:55.595Z,85.88867188
2023-04-17T01:38:56.404Z,85.98632813
2023-04-17T01:39:58.077Z,85.88867188
2023-04-17T01:40:58.983Z,85.88867188
2023-04-17T01:42:00.645Z,85.88867188
2023-04-17T01:43:01.709Z,86.09008789
2023-04-17T01:44:02.677Z,86.09008789
2023-04-17T01:45:04.241Z,86.09008789
2023-04-17T01:46:35.776Z,86.09008789
2023-04-17T01:47:37.748Z,85.98632813
2023-04-17T01:48:39.069Z,85.98632813
2023-04-17T01:49:39.990Z,85.88867188
2023-04-17T01:50:40.921Z,85.88867188
2023-04-17T01:51:41.811Z,85.98632813
2023-04-17T01:52:43.615Z,85.98632813
2023-04-17T01:53:44.556Z,86.19384766
2023-04-17T01:54:45.478Z,86.09008789
2023-04-17T01:55:47.166Z,86.09008789
2023-04-17T01:56:48.556Z,86.09008789
2023-04-17T01:57:50.088Z,86.19384766
2023-04-17T01:58:50.912Z,86.19384766
2023-04-17T01:59:52.510Z,86.09008789
2023-04-17T02:00:53.518Z,85.98632813
2023-04-17T02:01:54.435Z,85.98632813
2023-04-17T02:02:56.217Z,85.68115234
2023-04-17T02:03:57.332Z,85.2722168
2023-04-17T02:04:58.028Z,85.16845703
2023-04-17T02:05:59.594Z,85.16845703
2023-04-17T02:07:01.088Z,85.2722168
2023-04-17T02:08:02.115Z,85.16845703
2023-04-17T02:09:03.573Z,84.9609375
2023-04-17T02:10:36.070Z,84.85717773
2023-04-17T02:11:36.985Z,84.9609375
2023-04-17T02:12:37.906Z,84.9609375
2023-04-17T02:13:38.668Z,85.06469727
2023-04-17T02:14:39.647Z,84.9609375
2023-04-17T02:15:41.696Z,85.06469727
2023-04-17T02:16:43.903Z,85.20507813
2023-04-17T02:17:45.678Z,85.41259766
2023-04-17T02:18:46.432Z,85.62011719
2023-04-17T02:19:47.296Z,85.71777344
2023-04-17T02:20:48.348Z,85.71777344
2023-04-17T02:21:49.404Z,85.71777344
2023-04-17T02:22:51.109Z,85.51635742
2023-04-17T02:23:52.784Z,85.20507813
2023-04-17T02:24:54.514Z,85.10742188
2023-04-17T02:25:56.154Z,85.20507813
2023-04-17T02:26:57.112Z,85.41259766
2023-04-17T02:27:58.666Z,85.51635742
2023-04-17T02:28:59.522Z,85.51635742
2023-04-17T02:30:01.069Z,85.51635742
2023-04-17T02:31:02.151Z,85.51635742
2023-04-17T02:32:03.020Z,85.41259766
2023-04-17T02:33:35.158Z,85.62011719
2023-04-17T02:34:36.071Z,85.51635742
2023-04-17T02:35:37.625Z,85.30883789
2023-04-17T02:36:38.611Z,85.41259766
2023-04-17T02:37:40.171Z,85.71777344
2023-04-17T02:38:41.600Z,85.62011719
2023-04-17T02:39:43.079Z,85.30883789
2023-04-17T02:40:45.140Z,85.20507813
2023-04-17T02:41:46.236Z,85.41259766
2023-04-17T02:42:47.353Z,85.41259766
2023-04-17T02:43:49.166Z,85.41259766
2023-04-17T02:44:50.091Z,85.30883789
2023-04-17T02:45:51.611Z,85.20507813
2023-04-17T02:46:53.281Z,85.20507813
2023-04-17T02:47:55.304Z,85.20507813
2023-04-17T02:48:56.003Z,85.41259766
2023-04-17T02:49:57.500Z,85.41259766
2023-04-17T02:50:58.453Z,85.41259766
2023-04-17T02:52:00.168Z,85.30883789
2023-04-17T02:53:01.197Z,85.20507813
2023-04-17T02:54:02.636Z,85.30883789
2023-04-17T02:55:03.536Z,85.51635742
2023-04-17T02:56:35.624Z,85.62011719
2023-04-17T02:57:37.212Z,85.71777344
2023-04-17T02:58:38.097Z,85.62011719
2023-04-17T02:59:39.045Z,85.62011719
2023-04-17T03:00:40.012Z,85.71777344
2023-04-17T03:01:41.067Z,85.62011719
2023-04-17T03:02:42.786Z,85.41259766
2023-04-17T03:03:43.958Z,85.30883789
2023-04-17T03:04:44.680Z,85.20507813
2023-04-17T03:05:46.154Z,85.10742188
2023-04-17T03:06:47.053Z,84.89990234
2023-04-17T03:07:48.608Z,84.79614258
2023-04-17T03:08:49.532Z,84.69238281
2023-04-17T03:09:51.271Z,84.69238281
2023-04-17T03:10:53.186Z,84.58862305
2023-04-17T03:11:54.325Z,84.58862305
2023-04-17T03:12:56.119Z,84.58862305
2023-04-17T03:13:57.644Z,84.38720703
2023-04-17T03:14:59.109Z,84.1796875
2023-04-17T03:16:00.775Z,84.07592773
2023-04-17T03:17:01.627Z,83.93554688
2023-04-17T03:18:03.060Z,83.77075195
2023-04-17T03:19:35.000Z,83.87451172
2023-04-17T03:20:36.628Z,83.97827148
2023-04-17T03:21:37.733Z,84.1796875
2023-04-17T03:22:39.654Z,84.1796875
2023-04-17T03:23:40.489Z,84.28344727
2023-04-17T03:24:41.394Z,84.4909668
2023-04-17T03:25:43.142Z,84.38720703
2023-04-17T03:26:44.291Z,84.38720703
2023-04-17T03:27:46.096Z,84.28344727
2023-04-17T03:28:46.998Z,84.38720703
2023-04-17T03:29:47.978Z,84.38720703
2023-04-17T03:30:48.781Z,84.4909668
2023-04-17T03:31:49.824Z,84.58862305
2023-04-17T03:32:51.820Z,84.69238281
2023-04-17T03:33:52.640Z,84.79614258
2023-04-17T03:34:53.475Z,84.89990234
2023-04-17T03:35:55.126Z,85.00366211
2023-04-17T03:36:56.116Z,85.00366211
2023-04-17T03:37:57.043Z,85.10742188
2023-04-17T03:38:58.460Z,85.20507813
2023-04-17T03:40:00.260Z,84.89990234
2023-04-17T03:41:02.111Z,84.89990234
2023-04-17T03:42:03.583Z,84.89990234
2023-04-17T03:43:35.573Z,85.00366211
2023-04-17T03:44:36.783Z,84.69238281
2023-04-17T03:45:37.802Z,84.58862305
2023-04-17T03:46:39.604Z,84.69238281
2023-04-17T03:47:41.150Z,84.79614258
2023-04-17T03:48:41.960Z,84.69238281
2023-04-17T03:49:42.865Z,84.69238281
2023-04-17T03:50:44.676Z,84.58862305
2023-04-17T03:51:45.570Z,84.69238281
2023-04-17T03:52:47.131Z,84.58862305
2023-04-17T03:53:48.141Z,84.58862305
2023-04-17T03:54:49.040Z,84.69238281
2023-04-17T03:55:51.300Z,84.79614258
2023-04-17T03:56:52.223Z,84.79614258
2023-04-17T03:57:54.133Z,85.00366211
2023-04-17T03:58:55.637Z,85.10742188
2023-04-17T03:59:56.452Z,85.30883789
2023-04-17T04:00:57.408Z,85.41259766
2023-04-17T04:01:58.569Z,85.30883789
2023-04-17T04:03:00.134Z,85.30883789
2023-04-17T04:04:01.067Z,85.20507813
2023-04-17T04:05:02.640Z,85.41259766
2023-04-17T04:06:34.797Z,85.41259766
2023-04-17T04:07:35.826Z,85.51635742
2023-04-17T04:08:37.493Z,85.51635742
2023-04-17T04:09:38.418Z,85.41259766
2023-04-17T04:10:40.145Z,85.41259766
2023-04-17T04:11:41.040Z,85.41259766
2023-04-17T04:12:42.681Z,85.51635742
2023-04-17T04:13:44.148Z,85.41259766
2023-04-17T04:14:47.448Z,85.41259766
2023-04-17T04:15:48.538Z,85.41259766
2023-04-17T04:16:50.128Z,85.41259766
2023-04-17T04:17:51.760Z,85.30883789
2023-04-17T04:18:52.458Z,85.41259766
2023-04-17T04:19:53.317Z,85.51635742
2023-04-17T04:20:54.299Z,85.51635742
2023-04-17T04:21:55.254Z,85.62011719
2023-04-17T04:22:57.068Z,85.62011719
2023-04-17T04:23:57.864Z,85.71777344
2023-04-17T04:24:58.734Z,85.71777344
2023-04-17T04:25:59.714Z,85.71777344
2023-04-17T04:27:01.597Z,85.8215332
2023-04-17T04:28:03.656Z,86.1328125
2023-04-17T04:29:36.077Z,86.1328125
2023-04-17T04:30:37.642Z,86.1328125
2023-04-17T04:31:38.824Z,86.23657227
2023-04-17T04:32:40.678Z,86.43798828
2023-04-17T04:33:41.516Z,86.33422852
2023-04-17T04:34:42.484Z,86.23657227
2023-04-17T04:35:43.950Z,86.23657227
2023-04-17T04:36:45.665Z,86.1328125
2023-04-17T04:37:47.272Z,86.23657227
2023-04-17T04:38:48.113Z,86.33422852
2023-04-17T04:39:49.589Z,86.43798828
2023-04-17T04:40:51.628Z,86.43798828
2023-04-17T04:41:52.625Z,86.43798828
2023-04-17T04:42:54.126Z,86.43798828
2023-04-17T04:43:55.066Z,86.33422852
2023-04-17T04:44:56.062Z,86.02905273
2023-04-17T04:45:57.117Z,86.1328125
2023-04-17T04:46:58.619Z,86.33422852
2023-04-17T04:48:00.184Z,86.54174805
2023-04-17T04:49:01.638Z,86.64550781
2023-04-17T04:50:03.007Z,86.1328125
2023-04-17T04:51:34.410Z,86.1328125
2023-04-17T04:52:38.318Z,86.1328125
2023-04-17T04:53:40.170Z,86.1328125
2023-04-17T04:54:41.606Z,86.33422852
2023-04-17T04:55:42.554Z,86.58447266
2023-04-17T04:56:44.707Z,86.78588867
2023-04-17T04:57:45.654Z,87.15820313
2023-04-17T04:58:47.142Z,88.07983398
2023-04-17T04:59:48.042Z,88.69628906
2023-04-17T05:00:49.149Z,88.49487305
2023-04-17T05:01:50.010Z,88.07983398
2023-04-17T05:02:51.828Z,87.87841797
2023-04-17T05:03:52.914Z,87.67089844
2023-04-17T05:04:53.579Z,87.7746582
2023-04-17T05:05:54.674Z,87.36572266
2023-04-17T05:06:56.732Z,87.15820313
2023-04-17T05:07:58.584Z,87.05444336
2023-04-17T05:08:59.846Z,86.95068359
2023-04-17T05:10:01.016Z,86.23657227
2023-04-17T05:11:33.459Z,86.23657227
2023-04-17T05:12:34.349Z,86.1328125
2023-04-17T05:13:36.028Z,86.1328125
2023-04-17T05:14:37.038Z,86.33422852
2023-04-17T05:15:38.601Z,86.33422852
2023-04-17T05:16:40.167Z,86.33422852
2023-04-17T05:17:41.096Z,86.43798828
2023-04-17T05:18:42.626Z,86.43798828
2023-04-17T05:19:44.324Z,86.64550781
2023-04-17T05:20:45.227Z,86.78588867
2023-04-17T05:21:46.195Z,86.68212891
2023-04-17T05:22:48.095Z,86.48071289
2023-04-17T05:23:48.975Z,86.48071289
2023-04-17T05:24:49.917Z,87.7746582
2023-04-17T05:25:51.026Z,89.62402344
2023-04-17T05:26:52.670Z,89.82543945
2023-04-17T05:27:53.777Z,88.80004883
2023-04-17T05:28:55.588Z,87.7746582
2023-04-17T05:29:56.534Z,87.15820313
2023-04-17T05:30:57.511Z,86.84692383
2023-04-17T05:31:59.198Z,86.54174805
2023-04-17T05:33:00.693Z,86.23657227
2023-04-17T05:34:01.522Z,85.8215332
2023-04-17T05:35:33.076Z,85.76049805
2023-04-17T05:36:34.031Z,85.76049805
2023-04-17T05:37:38.001Z,85.96801758
2023-04-17T05:38:39.635Z,85.86425781
2023-04-17T05:39:41.114Z,85.86425781
2023-04-17T05:40:43.188Z,85.96801758
2023-04-17T05:41:44.359Z,85.96801758
2023-04-17T05:42:45.258Z,85.96801758
2023-04-17T05:43:47.022Z,85.76049805
2023-04-17T05:44:48.707Z,85.76049805
2023-04-17T05:45:49.797Z,85.86425781
2023-04-17T05:46:50.632Z,85.86425781
2023-04-17T05:47:52.160Z,85.86425781
2023-04-17T05:48:53.555Z,85.96801758
2023-04-17T05:49:54.455Z,85.96801758
2023-04-17T05:50:55.427Z,85.86425781
2023-04-17T05:51:56.458Z,85.76049805
2023-04-17T05:52:58.092Z,85.65673828
2023-04-17T05:53:58.983Z,85.55297852
2023-04-17T05:54:59.855Z,85.76049805
2023-04-17T05:56:00.794Z,85.65673828
2023-04-17T05:57:03.196Z,85.55297852
2023-04-17T05:58:35.149Z,85.55297852
2023-04-17T05:59:35.972Z,85.65673828
2023-04-17T06:00:36.924Z,85.55297852
2023-04-17T06:01:37.890Z,85.3515625
2023-04-17T06:02:38.959Z,85.0402832
2023-04-17T06:03:40.855Z,85.0402832
2023-04-17T06:04:42.102Z,85.0402832
2023-04-17T06:05:42.787Z,85.0402832
2023-04-17T06:06:44.085Z,84.93652344
2023-04-17T06:07:45.595Z,84.93652344
2023-04-17T06:08:47.126Z,84.93652344
2023-04-17T06:09:48.679Z,85.0402832
2023-04-17T06:10:50.157Z,85.14404297
2023-04-17T06:11:51.033Z,85.24780273
2023-04-17T06:12:52.534Z,85.45532227
2023-04-17T06:13:54.254Z,85.55297852
2023-04-17T06:14:55.182Z,85.65673828
2023-04-17T06:15:56.205Z,85.65673828
2023-04-17T06:16:58.196Z,85.65673828
2023-04-17T06:17:59.764Z,85.76049805
2023-04-17T06:19:00.544Z,85.55297852
2023-04-17T06:20:01.857Z,85.30883789
2023-04-17T06:21:33.472Z,85.20507813
2023-04-17T06:22:34.449Z,85.20507813
2023-04-17T06:23:36.088Z,85.10742188
2023-04-17T06:24:37.100Z,85.10742188
2023-04-17T06:25:38.358Z,85.10742188
2023-04-17T06:26:39.356Z,85.20507813
2023-04-17T06:27:41.043Z,85.10742188
2023-04-17T06:28:42.489Z,85.00366211
2023-04-17T06:29:43.330Z,85.00366211
2023-04-17T06:30:44.391Z,85.00366211
2023-04-17T06:31:45.300Z,85.10742188
2023-04-17T06:32:47.232Z,84.89990234
2023-04-17T06:33:48.009Z,85.00366211
2023-04-17T06:34:59.197Z,85.2722168
2023-04-17T06:35:50.471Z,85.2722168
2023-04-17T06:36:51.476Z,85.2722168
2023-04-17T06:37:53.079Z,85.16845703
2023-04-17T06:38:55.101Z,85.06469727
2023-04-17T06:39:56.581Z,84.85717773
2023-04-17T06:40:57.615Z,84.85717773
2023-04-17T06:41:58.720Z,85.06469727
2023-04-17T06:43:00.654Z,84.85717773
2023-04-17T06:44:32.276Z,84.9609375
2023-04-17T06:45:33.224Z,85.16845703
2023-04-17T06:46:35.164Z,85.2722168
2023-04-17T06:47:37.147Z,85.2722168
2023-04-17T06:48:37.990Z,85.2722168
2023-04-17T06:49:39.629Z,84.85717773
2023-04-17T06:50:40.635Z,84.75952148
2023-04-17T06:51:41.590Z,84.65576172
2023-04-17T06:52:42.478Z,84.71679688
2023-04-17T06:53:44.198Z,84.51538086
2023-04-17T06:54:45.048Z,84.71679688
2023-04-17T06:55:46.171Z,84.82055664
2023-04-17T06:56:47.175Z,84.92431641
2023-04-17T06:57:49.156Z,85.12573242
2023-04-17T06:58:50.612Z,84.92431641
2023-04-17T06:59:52.086Z,84.82055664
2023-04-17T07:00:53.029Z,84.71679688
2023-04-17T07:01:54.826Z,84.61303711
2023-04-17T07:02:56.757Z,84.71679688
2023-04-17T07:03:57.575Z,84.82055664
2023-04-17T07:04:58.542Z,84.71679688
2023-04-17T07:05:59.360Z,84.51538086
2023-04-17T07:07:00.388Z,84.30786133
2023-04-17T07:08:32.525Z,84.41162109
2023-04-17T07:09:34.460Z,84.61303711
2023-04-17T07:10:36.124Z,84.51538086
2023-04-17T07:11:37.138Z,84.71679688
2023-04-17T07:12:38.207Z,84.61303711
2023-04-17T07:13:40.131Z,84.82055664
2023-04-17T07:14:41.637Z,84.92431641
2023-04-17T07:15:42.581Z,85.06469727
2023-04-17T07:16:43.587Z,85.06469727
2023-04-17T07:17:45.242Z,85.16845703
2023-04-17T07:18:46.184Z,85.2722168
2023-04-17T07:19:47.013Z,85.2722168
2023-04-17T07:20:47.884Z,85.2722168
2023-04-17T07:21:48.824Z,85.22949219
2023-04-17T07:22:50.623Z,85.02807617
2023-04-17T07:23:51.496Z,84.82055664
2023-04-17T07:24:53.221Z,84.41162109
2023-04-17T07:25:55.181Z,84.30786133
2023-04-17T07:26:57.104Z,84.41162109
2023-04-17T07:27:58.509Z,84.30786133
2023-04-17T07:28:59.992Z,84.41162109
2023-04-17T07:30:31.829Z,84.41162109
2023-04-17T07:31:32.844Z,84.41162109
2023-04-17T07:32:34.105Z,84.36889648
2023-04-17T07:33:36.915Z,84.27124023
2023-04-17T07:34:36.561Z,84.27124023
2023-04-17T07:35:38.126Z,84.47265625
2023-04-17T07:36:39.622Z,84.47265625
2023-04-17T07:37:41.117Z,84.57641602
2023-04-17T07:38:42.036Z,84.78393555
2023-04-17T07:39:44.138Z,84.68017578
2023-04-17T07:40:45.132Z,84.36889648
2023-04-17T07:41:45.951Z,83.75854492
2023-04-17T07:42:46.807Z,83.44726563
2023-04-17T07:43:48.654Z,83.34350586
2023-04-17T07:44:49.692Z,83.34350586
2023-04-17T07:45:50.718Z,83.34350586
2023-04-17T07:46:51.743Z,83.38623047
2023-04-17T07:47:53.195Z,83.69140625
2023-04-17T07:48:54.210Z,83.79516602
2023-04-17T07:49:56.223Z,84.00268555
2023-04-17T07:50:57.276Z,84.41162109
2023-04-17T07:51:58.155Z,85.02807617
2023-04-17T07:52:59.569Z,85.22949219
2023-04-17T07:54:01.612Z,84.57641602
2023-04-17T07:55:33.178Z,84.78393555
2023-04-17T07:56:34.131Z,84.8815918
2023-04-17T07:57:35.140Z,84.78393555
2023-04-17T07:58:36.786Z,84.98535156
2023-04-17T07:59:37.737Z,85.29663086
2023-04-17T08:00:39.602Z,85.60180664
2023-04-17T08:01:41.267Z,85.90698242
2023-04-17T08:02:42.217Z,86.01074219
2023-04-17T08:03:44.075Z,86.21826172
2023-04-17T08:04:45.716Z,86.11450195
2023-04-17T08:05:47.402Z,86.07177734
2023-04-17T08:06:48.379Z,86.07177734
2023-04-17T08:07:49.442Z,85.87036133
2023-04-17T08:08:51.225Z,85.6628418
2023-04-17T08:09:53.318Z,85.6628418
2023-04-17T08:10:54.460Z,85.87036133
2023-04-17T08:11:57.878Z,85.87036133
2023-04-17T08:12:57.099Z,85.87036133
2023-04-17T08:13:58.124Z,85.87036133
2023-04-17T08:14:59.679Z,85.97412109
2023-04-17T08:16:31.442Z,85.97412109
2023-04-17T08:17:32.657Z,86.07177734
2023-04-17T08:18:34.001Z,86.07177734
2023-04-17T08:19:34.783Z,86.07177734
2023-04-17T08:20:36.648Z,86.07177734
2023-04-17T08:21:37.662Z,85.76660156
2023-04-17T08:22:39.155Z,85.35766602
2023-04-17T08:23:40.608Z,85.15014648
2023-04-17T08:24:41.579Z,85.25390625
2023-04-17T08:25:42.650Z,85.55908203
2023-04-17T08:26:44.152Z,85.25390625
2023-04-17T08:27:45.188Z,85.25390625
2023-04-17T08:28:47.167Z,85.00976563
2023-04-17T08:29:48.158Z,85.31494141
2023-04-17T08:30:49.661Z,85.6262207
2023-04-17T08:31:57.455Z,85.41870117
2023-04-17T08:32:52.124Z,85.21728516
2023-04-17T08:34:06.193Z,85.21728516
2023-04-17T08:34:54.093Z,85.21728516
2023-04-17T08:35:54.975Z,85.21728516
2023-04-17T08:36:55.977Z,85.41870117
2023-04-17T08:37:57.614Z,85.31494141
2023-04-17T08:38:58.396Z,84.80224609
2023-04-17T08:40:00.627Z,84.90600586
2023-04-17T08:41:32.569Z,84.74121094
2023-04-17T08:42:33.639Z,84.63745117
2023-04-17T08:43:35.030Z,84.74121094
2023-04-17T08:44:35.941Z,84.94873047
2023-04-17T08:45:36.732Z,85.25390625
2023-04-17T08:46:37.629Z,85.35766602
2023-04-17T08:47:38.460Z,85.35766602
2023-04-17T08:48:40.082Z,84.90600586
2023-04-17T08:49:40.963Z,84.60083008
2023-04-17T08:50:42.644Z,84.49707031
2023-04-17T08:51:43.942Z,84.60083008
2023-04-17T08:52:45.585Z,84.70458984
2023-04-17T08:53:46.433Z,84.70458984
2023-04-17T08:54:50.611Z,84.80224609
2023-04-17T08:55:49.131Z,85.41870117
2023-04-17T08:56:50.247Z,85.11352539
2023-04-17T08:57:52.169Z,85.11352539
2023-04-17T08:58:53.274Z,85.52246094
2023-04-17T08:59:54.501Z,85.79101563
2023-04-17T09:00:55.637Z,84.96704102
2023-04-17T09:01:57.096Z,84.86938477
2023-04-17T09:02:59.070Z,83.84399414
2023-04-17T09:04:31.255Z,83.33129883
2023-04-17T09:05:32.103Z,83.53881836
2023-04-17T09:06:33.346Z,83.63647461
2023-04-17T09:07:34.430Z,83.94775391
2023-04-17T09:08:36.013Z,83.63647461
2023-04-17T09:09:37.029Z,83.84399414
2023-04-17T09:10:38.575Z,83.84399414
2023-04-17T09:11:40.420Z,84.04541016
2023-04-17T09:12:41.388Z,83.39233398
2023-04-17T09:13:43.117Z,83.29467773
2023-04-17T09:14:44.198Z,82.98339844
2023-04-17T09:15:45.529Z,82.47680664
2023-04-17T09:16:47.900Z,82.06787109
2023-04-17T09:17:49.161Z,81.86035156
2023-04-17T09:18:50.603Z,81.7199707
2023-04-17T09:19:51.885Z,81.51245117
2023-04-17T09:20:53.853Z,81.51245117
2023-04-17T09:21:55.390Z,81.10351563
2023-04-17T09:22:57.021Z,81.10351563
2023-04-17T09:23:57.993Z,81.31103516
2023-04-17T09:24:59.777Z,81.61621094
2023-04-17T09:26:32.129Z,81.37817383
2023-04-17T09:27:33.580Z,81.98852539
2023-04-17T09:28:35.042Z,81.98852539
2023-04-17T09:29:36.453Z,81.47583008
2023-04-17T09:30:37.303Z,81.37817383
2023-04-17T09:31:38.196Z,80.72509766
2023-04-17T09:32:38.886Z,81.1340332
2023-04-17T09:33:40.493Z,79.90722656
2023-04-17T09:34:41.422Z,79.74243164
2023-04-17T09:35:42.357Z,79.43115234
2023-04-17T09:36:44.165Z,79.12597656
2023-04-17T09:37:45.636Z,79.0222168
2023-04-17T09:38:46.403Z,79.33349609
2023-04-17T09:39:48.034Z,79.53491211
2023-04-17T09:40:49.644Z,79.53491211
2023-04-17T09:41:51.101Z,80.3527832
2023-04-17T09:42:52.580Z,80.86547852
2023-04-17T09:43:53.457Z,80.82885742
2023-04-17T09:44:55.112Z,80.72509766
2023-04-17T09:45:55.982Z,80.51757813
2023-04-17T09:46:56.894Z,80.21240234
2023-04-17T09:47:58.665Z,79.39453125
2023-04-17T09:48:59.872Z,79.08935547
2023-04-17T09:50:31.401Z,79.19311523
2023-04-17T09:51:33.054Z,78.88183594
2023-04-17T09:52:34.548Z,78.57666016
2023-04-17T09:53:35.393Z,78.47900391
2023-04-17T09:54:37.265Z,78.27148438
2023-04-17T09:55:38.493Z,78.30810547
2023-04-17T09:56:39.215Z,77.79541016
2023-04-17T09:57:40.499Z,77.79541016
2023-04-17T09:58:41.567Z,77.72827148
2023-04-17T09:59:42.466Z,78.13720703
2023-04-17T10:00:43.457Z,78.34472656
2023-04-17T10:01:45.455Z,78.55224609
2023-04-17T10:02:46.464Z,79.05883789
2023-04-17T10:03:48.412Z,79.16259766
2023-04-17T10:04:48.945Z,79.16259766
2023-04-17T10:05:50.604Z,79.26635742
2023-04-17T10:06:51.510Z,79.05883789
2023-04-17T10:07:52.273Z,79.05883789
2023-04-17T10:08:54.238Z,79.50439453
2023-04-17T10:09:56.082Z,79.71191406
2023-04-17T10:10:56.990Z,79.77905273
2023-04-17T10:11:58.563Z,79.37011719
2023-04-17T10:13:00.585Z,79.5715332
2023-04-17T10:14:31.875Z,79.37011719
2023-04-17T10:15:33.558Z,79.37011719
2023-04-17T10:16:34.657Z,79.26635742
2023-04-17T10:17:35.268Z,79.0222168
2023-04-17T10:18:36.966Z,78.30810547
2023-04-17T10:19:38.873Z,78.515625
2023-04-17T10:20:39.795Z,78.515625
2023-04-17T10:21:41.608Z,77.86254883
2023-04-17T10:22:42.449Z,77.45361328
2023-04-17T10:23:44.168Z,76.84326172
2023-04-17T10:24:46.144Z,76.73950195
2023-04-17T10:25:47.111Z,76.84326172
2023-04-17T10:26:48.574Z,76.0925293
2023-04-17T10:27:49.356Z,75.47607422
2023-04-17T10:28:51.115Z,75.47607422
2023-04-17T10:29:52.053Z,75.37231445
2023-04-17T10:30:52.928Z,75.47607422
2023-04-17T10:31:54.578Z,75.47607422
2023-04-17T10:32:55.402Z,75.68359375
2023-04-17T10:33:57.084Z,75.98876953
2023-04-17T10:34:58.638Z,75.88500977
2023-04-17T10:36:31.029Z,75.98876953
2023-04-17T10:37:31.847Z,76.50146484
2023-04-17T10:38:32.801Z,76.70288086
2023-04-17T10:39:34.668Z,76.50146484
2023-04-17T10:40:36.134Z,76.84326172
2023-04-17T10:41:37.604Z,76.94091797
2023-04-17T10:42:38.850Z,76.84326172
2023-04-17T10:43:40.086Z,77.1484375
2023-04-17T10:44:42.132Z,76.84326172
2023-04-17T10:45:43.121Z,76.84326172
2023-04-17T10:46:44.591Z,76.56860352
2023-04-17T10:47:45.493Z,77.08129883
2023-04-17T10:48:46.615Z,77.28881836
2023-04-17T10:49:47.499Z,77.52685547
2023-04-17T10:50:48.413Z,77.93579102
2023-04-17T10:51:50.157Z,78.13720703
2023-04-17T10:52:51.093Z,78.03955078
2023-04-17T10:53:54.590Z,78.2409668
2023-04-17T10:54:55.704Z,78.64990234
2023-04-17T10:55:56.612Z,78.85742188
2023-04-17T10:56:57.457Z,79.05883789
2023-04-17T10:57:58.448Z,79.05883789
2023-04-17T10:59:30.325Z,78.85742188
2023-04-17T11:00:31.286Z,78.96118164
2023-04-17T11:01:33.208Z,79.05883789
2023-04-17T11:02:34.110Z,79.16259766
2023-04-17T11:03:35.814Z,79.16259766
2023-04-17T11:04:36.782Z,78.96118164
2023-04-17T11:05:38.665Z,78.75366211
2023-04-17T11:06:39.490Z,78.75366211
2023-04-17T11:07:41.095Z,78.64990234
2023-04-17T11:08:41.998Z,78.85742188
2023-04-17T11:09:43.671Z,78.64990234
2023-04-17T11:10:44.538Z,78.2409668
2023-04-17T11:11:46.173Z,78.03955078
2023-04-17T11:12:47.101Z,77.83203125
2023-04-17T11:13:48.012Z,77.83203125
2023-04-17T11:14:49.602Z,77.79541016
2023-04-17T11:15:50.545Z,77.79541016
2023-04-17T11:16:51.472Z,77.89916992
2023-04-17T11:17:52.190Z,77.49023438